Time;durP1;ratioP1;P1;durP2;ratioP2;P2;SDS_P1;SDS_P2;PMS_P1;PMS_P2;Temp;Humidity;BMP_temperature;BMP_pressure;BME280_temperature;BME280_humidity;BME280_pressure;Samples;Min_cycle;Max_cycle;Signal;HPM_P1;HPM_P2
2021/12/21 00:01:57;;;;;;;9.50;4.77;;;;;;;18.47;50.49;101089.25;5042361;28;20188;-74
2021/12/21 00:04:23;;;;;;;11.10;4.70;;;;;;;18.47;50.50;101090.06;5025968;28;20215;-73
2021/12/21 00:06:50;;;;;;;11.97;5.07;;;;;;;18.49;50.57;101086.84;5029905;28;20244;-74
2021/12/21 00:09:16;;;;;;;8.17;4.77;;;;;;;18.51;50.49;101079.59;5030917;28;20223;-75
2021/12/21 00:11:41;;;;;;;8.00;3.90;;;;;;;18.47;50.90;101078.63;5044740;28;20985;-74
2021/12/21 00:14:17;;;;;;;5.87;4.07;;;;;;;18.41;50.51;101073.56;5017842;28;20591;-75
2021/12/21 00:20:04;;;;;;;6.83;4.40;;;;;;;18.45;50.37;101063.03;5048573;28;20472;-75
2021/12/21 00:22:54;;;;;;;8.97;4.30;;;;;;;18.39;50.81;101062.47;5031033;28;20533;-75
2021/12/21 00:25:09;;;;;;;6.73;4.13;;;;;;;18.45;50.32;101063.88;5030849;28;20447;-75
2021/12/21 00:27:35;;;;;;;7.53;4.50;;;;;;;18.41;50.81;101057.22;5028857;28;20863;-74
2021/12/21 00:30:00;;;;;;;8.57;4.57;;;;;;;18.42;50.62;101055.19;5016416;28;20180;-74
2021/12/21 00:32:26;;;;;;;13.00;4.30;;;;;;;18.36;51.03;101059.50;5046365;28;20183;-74
2021/12/21 00:34:51;;;;;;;6.87;4.13;;;;;;;18.43;50.57;101060.56;5040766;28;20184;-75
2021/12/21 00:37:18;;;;;;;10.63;4.50;;;;;;;18.39;51.15;101058.78;5039589;28;20172;-74
2021/12/21 00:39:44;;;;;;;5.97;4.17;;;;;;;18.38;50.63;101055.09;5021698;28;20877;-75
2021/12/21 00:42:09;;;;;;;10.17;5.07;;;;;;;18.47;50.69;101050.03;5028883;28;20435;-75
2021/12/21 00:44:35;;;;;;;6.70;4.00;;;;;;;18.42;50.68;101050.28;5015249;28;20192;-75
2021/12/21 00:47:00;;;;;;;8.17;4.57;;;;;;;18.41;50.59;101057.22;5029453;28;20208;-75
2021/12/21 00:49:27;;;;;;;6.00;3.60;;;;;;;18.41;50.65;101059.25;4996376;28;20624;-74
2021/12/21 00:51:52;;;;;;;9.67;4.47;;;;;;;18.43;50.77;101059.72;5025594;28;20176;-75
2021/12/21 00:54:18;;;;;;;7.37;4.07;;;;;;;18.47;50.65;101052.91;5028994;28;20514;-75
2021/12/21 00:56:43;;;;;;;7.33;4.47;;;;;;;18.43;50.51;101051.97;5046570;28;20309;-75
2021/12/21 00:59:09;;;;;;;9.13;4.70;;;;;;;18.39;51.00;101050.19;5031553;28;20199;-73
2021/12/21 01:01:40;;;;;;;8.10;4.33;;;;;;;18.38;50.30;101037.94;5039535;28;20247;-73
2021/12/21 01:04:09;;;;;;;6.10;3.77;;;;;;;18.38;50.74;101040.81;4997954;28;20215;-76
2021/12/21 01:11:36;;;;;;;5.90;3.77;;;;;;;18.40;50.87;101032.69;5031114;28;20196;-74
2021/12/21 01:17:01;;;;;;;6.83;3.50;;;;;;;18.37;51.03;101035.44;5047353;28;20430;-75
2021/12/21 01:22:00;;;;;;;9.20;3.83;;;;;;;18.34;50.63;101034.13;5032799;28;20406;-75
2021/12/21 01:24:41;;;;;;;6.53;3.90;;;;;;;18.43;50.54;101037.69;5031260;28;20441;-74
2021/12/21 01:29:47;;;;;;;7.93;4.33;;;;;;;18.39;50.82;101036.75;5021406;28;20437;-75
2021/12/21 01:32:28;;;;;;;7.00;3.77;;;;;;;18.35;50.78;101038.66;5019060;28;20530;-75
2021/12/21 01:35:10;;;;;;;7.30;3.63;;;;;;;18.32;50.70;101035.66;5033017;28;20438;-73
2021/12/21 01:37:55;;;;;;;6.13;4.30;;;;;;;18.37;50.61;101038.31;5016342;28;20434;-73
2021/12/21 01:40:36;;;;;;;9.23;4.37;;;;;;;18.31;51.03;101039.72;5035167;28;20898;-73
2021/12/21 01:43:29;;;;;;;7.47;4.03;;;;;;;18.28;50.99;101038.41;5034867;28;20429;-75
2021/12/21 01:51:23;;;;;;;12.10;3.67;;;;;;;18.24;51.29;101045.19;5033190;28;20421;-74
2021/12/21 01:53:48;;;;;;;8.83;3.83;;;;;;;18.24;51.42;101034.63;5004221;28;20439;-74
2021/12/21 01:56:14;;;;;;;8.80;3.90;;;;;;;18.27;51.12;101042.44;5031607;28;20183;-73
2021/12/21 01:58:40;;;;;;;5.70;3.70;;;;;;;18.27;50.95;101039.59;5028311;28;20192;-75
2021/12/21 02:01:12;;;;;;;6.50;3.90;;;;;;;18.33;50.83;101043.91;5041329;28;20183;-74
2021/12/21 02:03:38;;;;;;;6.13;3.70;;;;;;;18.28;51.05;101034.72;5015992;28;20615;-75
2021/12/21 02:06:03;;;;;;;9.60;4.40;;;;;;;18.31;50.71;101040.53;5015902;28;20478;-74
2021/12/21 02:08:29;;;;;;;5.40;3.30;;;;;;;18.34;50.85;101039.00;5025783;28;20186;-75
2021/12/21 02:10:59;;;;;;;8.03;4.13;;;;;;;18.28;50.80;101034.72;5028624;28;20551;-74
2021/12/21 02:13:24;;;;;;;5.50;3.70;;;;;;;18.32;50.94;101042.22;5027681;28;20207;-75
2021/12/21 02:15:50;;;;;;;6.10;4.10;;;;;;;18.30;51.01;101036.03;4995548;28;20422;-74
2021/12/21 02:18:47;;;;;;;5.20;3.27;;;;;;;18.35;50.67;101032.94;5016554;28;20191;-74
2021/12/21 02:21:17;;;;;;;5.80;3.50;;;;;;;18.34;50.77;101027.56;5047150;28;20632;-75
2021/12/21 02:23:42;;;;;;;6.00;3.83;;;;;;;18.35;50.78;101026.38;5030035;28;20445;-74
2021/12/21 02:26:35;;;;;;;5.67;4.07;;;;;;;18.35;50.55;101027.22;5047442;28;20499;-74
2021/12/21 02:29:25;;;;;;;5.17;3.53;;;;;;;18.29;50.63;101024.94;5038364;28;20753;-74
2021/12/21 02:31:51;;;;;;;6.43;4.20;;;;;;;18.30;50.90;101024.59;5034355;28;20998;-74
2021/12/21 02:34:17;;;;;;;6.23;3.57;;;;;;;18.35;50.78;101029.22;5027600;28;20426;-75
2021/12/21 02:36:44;;;;;;;4.33;3.23;;;;;;;18.26;51.05;101023.63;5005206;28;20593;-75
2021/12/21 02:39:09;;;;;;;6.73;3.23;;;;;;;18.30;50.51;101026.59;5048477;28;20452;-74
2021/12/21 02:41:36;;;;;;;6.10;4.00;;;;;;;18.30;50.91;101026.59;5047091;28;20430;-75
2021/12/21 02:44:01;;;;;;;5.97;3.50;;;;;;;18.29;50.70;101027.81;5064540;28;20187;-74
2021/12/21 02:46:27;;;;;;;5.70;3.57;;;;;;;18.24;50.75;101031.75;5021111;28;20960;-74
2021/12/21 02:48:52;;;;;;;5.73;3.77;;;;;;;18.25;50.70;101029.72;5047450;28;20187;-74
2021/12/21 02:51:18;;;;;;;7.23;3.90;;;;;;;18.30;50.57;101026.59;5049061;28;20183;-75
2021/12/21 02:53:44;;;;;;;6.73;3.47;;;;;;;18.33;50.89;101026.75;5035551;28;20549;-73
2021/12/21 02:56:13;;;;;;;4.93;3.40;;;;;;;18.28;50.69;101024.13;5034785;28;20172;-75
2021/12/21 02:58:39;;;;;;;5.87;3.90;;;;;;;18.30;50.84;101013.16;5035770;28;20913;-75
2021/12/21 03:01:06;;;;;;;7.30;4.00;;;;;;;18.29;50.78;101020.06;5025238;28;20489;-75
2021/12/21 03:03:31;;;;;;;7.43;3.67;;;;;;;18.29;50.70;101022.09;5052009;28;20206;-74
2021/12/21 03:05:58;;;;;;;5.87;3.73;;;;;;;18.24;51.04;101016.63;5052921;28;20466;-74
2021/12/21 03:08:35;;;;;;;6.50;3.80;;;;;;;18.23;50.73;101007.22;5035526;28;20546;-75
2021/12/21 03:16:13;;;;;;;5.10;3.10;;;;;;;18.16;51.26;101015.56;5038748;28;20448;-74
2021/12/21 03:18:39;;;;;;;5.97;3.30;;;;;;;18.17;51.11;101019.28;5032073;28;20434;-75
2021/12/21 03:21:04;;;;;;;10.33;3.50;;;;;;;18.14;51.24;101017.97;5023225;28;20282;-75
2021/12/21 03:23:30;;;;;;;6.47;3.90;;;;;;;18.14;50.97;101023.69;5050965;28;20548;-74
2021/12/21 03:25:55;;;;;;;5.70;3.30;;;;;;;18.16;51.00;101026.19;5050613;28;20626;-73
2021/12/21 03:28:22;;;;;;;7.37;3.77;;;;;;;18.12;51.36;101014.63;5035074;28;20195;-73
2021/12/21 03:30:47;;;;;;;6.57;3.70;;;;;;;18.21;51.62;101021.03;5050928;28;20187;-75
2021/12/21 03:33:13;;;;;;;7.30;3.60;;;;;;;18.17;51.15;101022.94;5033803;28;20483;-73
2021/12/21 03:35:38;;;;;;;6.43;3.30;;;;;;;18.18;50.93;101030.34;5030634;28;20195;-75
2021/12/21 03:38:04;;;;;;;5.00;3.23;;;;;;;18.21;50.65;101023.88;5050207;28;20180;-74
2021/12/21 03:40:32;;;;;;;5.90;3.23;;;;;;;18.24;50.77;101019.47;5034217;28;20176;-74
2021/12/21 03:42:58;;;;;;;5.80;3.50;;;;;;;18.26;50.76;101019.97;5034452;28;20556;-73
2021/12/21 03:45:24;;;;;;;10.90;3.83;;;;;;;18.24;50.83;101023.19;5047537;28;20528;-75
2021/12/21 03:47:49;;;;;;;6.00;3.40;;;;;;;18.22;50.87;101022.69;5051181;28;20512;-74
2021/12/21 03:50:19;;;;;;;5.33;3.30;;;;;;;18.26;50.87;101026.50;5048093;28;20639;-74
2021/12/21 03:52:44;;;;;;;4.33;3.23;;;;;;;18.30;50.68;101023.75;5042231;28;20184;-74
2021/12/21 03:55:10;;;;;;;6.30;3.13;;;;;;;18.24;50.59;101020.31;5033465;28;20429;-74
2021/12/21 03:57:35;;;;;;;4.63;3.40;;;;;;;18.25;50.71;101018.28;5034110;28;20203;-74
2021/12/21 04:00:01;;;;;;;5.13;3.40;;;;;;;18.26;50.75;101022.81;5049589;28;20559;-74
2021/12/21 04:02:28;;;;;;;6.70;3.70;;;;;;;18.31;50.46;101023.38;5032032;28;20211;-75
2021/12/21 04:04:56;;;;;;;5.03;3.60;;;;;;;18.19;51.18;101020.56;5033672;28;20651;-74
2021/12/21 04:07:21;;;;;;;4.83;3.03;;;;;;;18.19;51.02;101014.84;5028559;28;20823;-74
2021/12/21 04:09:48;;;;;;;6.10;2.70;;;;;;;18.23;50.90;101017.81;5014242;28;20422;-74
2021/12/21 04:12:14;;;;;;;3.83;3.00;;;;;;;18.19;50.55;101012.00;5035048;28;20219;-75
2021/12/21 04:14:41;;;;;;;4.50;3.13;;;;;;;18.20;50.50;101012.81;5034071;28;20441;-74
2021/12/21 04:17:06;;;;;;;5.53;3.10;;;;;;;18.16;50.84;101012.72;5033575;28;20184;-74
2021/12/21 04:19:32;;;;;;;4.37;3.30;;;;;;;18.19;51.49;101009.13;5017075;28;21306;-75
2021/12/21 04:21:57;;;;;;;5.27;3.30;;;;;;;18.22;50.82;101011.25;5031337;28;20297;-76
2021/12/21 04:24:23;;;;;;;6.73;3.37;;;;;;;18.23;51.08;101009.25;5017131;28;20192;-74
2021/12/21 04:26:48;;;;;;;5.87;3.50;;;;;;;18.21;50.71;101003.88;5032798;28;20191;-75
2021/12/21 04:29:14;;;;;;;4.97;3.10;;;;;;;18.18;50.83;100993.19;5033590;28;20179;-74
2021/12/21 04:31:39;;;;;;;5.93;2.97;;;;;;;18.21;50.81;100992.44;5028599;28;20188;-74
2021/12/21 04:34:05;;;;;;;5.70;3.10;;;;;;;18.19;51.57;100997.72;5029247;28;20184;-73
2021/12/21 04:36:30;;;;;;;4.77;3.10;;;;;;;18.22;50.76;101004.72;5013759;28;20177;-75
2021/12/21 04:38:58;;;;;;;4.77;3.30;;;;;;;18.12;51.04;100997.47;5013256;28;20207;-74
2021/12/21 04:41:27;;;;;;;5.17;3.40;;;;;;;18.08;51.34;100995.72;5017003;28;20188;-74
2021/12/21 04:43:56;;;;;;;5.97;3.33;;;;;;;18.09;51.46;101003.94;5049540;28;20421;-75
2021/12/21 04:46:22;;;;;;;4.47;3.13;;;;;;;18.11;51.42;101006.44;5033872;28;20554;-74
2021/12/21 04:48:47;;;;;;;5.00;2.83;;;;;;;18.14;51.15;100992.25;5026338;28;20443;-73
2021/12/21 04:51:12;;;;;;;4.13;3.00;;;;;;;18.09;51.64;100991.66;5029835;28;20186;-73
2021/12/21 04:53:38;;;;;;;5.27;3.00;;;;;;;18.15;50.96;100982.47;5030039;28;20181;-75
2021/12/21 04:56:04;;;;;;;4.20;2.70;;;;;;;18.14;50.93;100994.25;5008454;28;20394;-76
2021/12/21 04:58:30;;;;;;;4.47;3.20;;;;;;;18.12;51.20;100993.81;5048277;28;20544;-75
2021/12/21 05:00:55;;;;;;;3.90;2.70;;;;;;;18.19;51.33;100999.72;5034005;28;20199;-75
2021/12/21 05:03:20;;;;;;;5.97;2.90;;;;;;;18.17;50.91;101002.13;5044720;28;20203;-73
2021/12/21 05:05:46;;;;;;;5.33;2.83;;;;;;;18.22;50.74;100994.09;5024498;28;20228;-74
2021/12/21 05:08:19;;;;;;;5.83;3.23;;;;;;;18.20;50.80;100987.09;5045265;28;20319;-74
2021/12/21 05:10:48;;;;;;;4.67;3.20;;;;;;;18.20;50.78;100990.78;5029547;28;20188;-76
2021/12/21 05:13:14;;;;;;;3.40;2.63;;;;;;;18.26;50.78;100991.38;5012367;28;20419;-74
2021/12/21 05:15:40;;;;;;;4.40;3.00;;;;;;;18.20;50.80;100995.66;5013596;28;20426;-74
2021/12/21 05:18:05;;;;;;;4.40;2.73;;;;;;;18.22;50.79;100987.59;5032372;28;20437;-73
2021/12/21 05:20:31;;;;;;;5.83;3.07;;;;;;;18.20;50.91;100985.06;5044601;28;20180;-74
2021/12/21 05:22:56;;;;;;;3.57;2.50;;;;;;;18.26;50.50;100988.53;5031976;28;20164;-74
2021/12/21 05:25:22;;;;;;;4.40;2.43;;;;;;;18.24;50.98;100982.31;5049297;28;20182;-73
2021/12/21 05:27:47;;;;;;;4.40;2.70;;;;;;;18.24;50.63;100994.59;5047616;28;20207;-76
2021/12/21 05:30:13;;;;;;;5.47;3.13;;;;;;;18.28;50.61;100983.25;5031825;28;20233;-75
2021/12/21 05:32:38;;;;;;;4.40;2.90;;;;;;;18.20;50.64;100979.38;5045644;28;20196;-74
2021/12/21 05:35:04;;;;;;;4.87;3.20;;;;;;;18.21;50.62;100983.06;5024903;28;20180;-74
2021/12/21 05:37:30;;;;;;;5.73;3.17;;;;;;;18.24;50.71;100997.47;5047543;28;20175;-74
2021/12/21 05:40:10;;;;;;;4.33;2.60;;;;;;;18.22;50.68;100991.25;5050348;28;20631;-75
2021/12/21 05:42:35;;;;;;;3.90;2.90;;;;;;;18.23;50.68;100992.94;5029262;28;20973;-73
2021/12/21 05:45:01;;;;;;;5.80;2.73;;;;;;;18.33;50.97;100992.47;5031047;28;20433;-74
2021/12/21 05:47:27;;;;;;;5.20;3.27;;;;;;;18.25;50.45;100995.41;5044721;28;20336;-73
2021/12/21 05:49:52;;;;;;;3.60;2.53;;;;;;;18.25;50.70;101006.84;5015418;28;20952;-76
2021/12/21 05:52:18;;;;;;;5.20;3.23;;;;;;;18.23;50.66;101003.53;5031577;28;20179;-75
2021/12/21 05:54:43;;;;;;;3.93;2.80;;;;;;;18.23;50.67;101009.25;5047855;28;20187;-74
2021/12/21 05:57:08;;;;;;;4.73;2.50;;;;;;;18.30;50.44;101004.56;5040947;28;20176;-74
2021/12/21 05:59:34;;;;;;;4.07;2.70;;;;;;;18.24;50.55;101011.75;5046632;28;20257;-76
2021/12/21 06:01:59;;;;;;;4.33;2.77;;;;;;;18.29;50.41;101016.38;5049605;28;20632;-74
2021/12/21 06:04:25;;;;;;;4.87;2.90;;;;;;;18.23;51.02;101020.69;5047609;28;20203;-74
2021/12/21 06:06:52;;;;;;;5.40;3.10;;;;;;;18.20;50.89;101027.09;5032296;28;20227;-75
2021/12/21 06:09:18;;;;;;;4.27;2.77;;;;;;;18.11;51.03;101024.38;5029620;28;20975;-74
2021/12/21 06:11:51;;;;;;;5.00;3.50;;;;;;;18.07;51.66;101026.28;5048008;28;20183;-76
2021/12/21 06:14:48;;;;;;;5.47;2.90;;;;;;;18.14;51.28;101031.41;5047610;28;20159;-76
2021/12/21 06:22:51;;;;;;;5.40;2.97;;;;;;;18.12;51.54;101026.06;5034960;28;20414;-74
2021/12/21 06:28:03;;;;;;;3.97;2.30;;;;;;;18.14;50.85;101028.56;5015005;28;20505;-74
2021/12/21 06:30:29;;;;;;;4.77;3.03;;;;;;;18.11;51.50;101035.00;5037102;28;20448;-73
2021/12/21 06:32:55;;;;;;;3.90;2.33;;;;;;;18.16;51.12;101034.75;5035451;28;20522;-74
2021/12/21 06:35:20;;;;;;;4.17;2.50;;;;;;;18.20;50.91;101042.25;5028646;28;20187;-75
2021/12/21 06:37:46;;;;;;;5.30;2.77;;;;;;;18.22;50.45;101036.16;5039327;28;20206;-74
2021/12/21 06:40:11;;;;;;;4.20;3.00;;;;;;;18.24;50.71;101031.75;5030779;28;20258;-73
2021/12/21 06:42:38;;;;;;;4.03;2.80;;;;;;;18.23;50.79;101030.09;5031797;28;20183;-75
2021/12/21 06:45:11;;;;;;;5.67;3.00;;;;;;;18.19;51.23;101036.88;5027934;28;20187;-74
2021/12/21 06:53:06;;;;;;;3.60;2.60;;;;;;;18.27;50.66;101036.72;5049716;28;20948;-75
2021/12/21 06:55:32;;;;;;;3.33;2.30;;;;;;;18.33;50.85;101032.47;5037650;28;20434;-74
2021/12/21 06:57:57;;;;;;;4.67;2.63;;;;;;;18.34;50.46;101039.84;5030795;28;20259;-74
2021/12/21 07:00:24;;;;;;;5.07;2.50;;;;;;;18.27;50.57;101031.00;5047912;28;20197;-74
2021/12/21 07:02:49;;;;;;;4.00;2.60;;;;;;;18.27;50.54;101030.19;5065472;28;20180;-74
2021/12/21 07:05:15;;;;;;;5.93;2.70;;;;;;;18.28;50.78;101031.84;5038011;28;20972;-76
2021/12/21 07:07:41;;;;;;;4.40;2.60;;;;;;;18.34;50.76;101036.16;5030920;28;20215;-75
2021/12/21 07:10:10;;;;;;;3.17;2.50;;;;;;;18.27;50.71;101035.91;5030786;28;20175;-75
2021/12/21 07:18:11;;;;;;;4.37;2.47;;;;;;;18.32;50.35;101029.94;5035795;28;20465;-74
2021/12/21 07:20:37;;;;;;;4.87;2.83;;;;;;;18.35;51.28;101035.78;5018796;28;20437;-73
2021/12/21 07:23:02;;;;;;;3.80;2.33;;;;;;;18.33;50.73;101043.91;5031210;28;20514;-73
2021/12/21 07:25:29;;;;;;;3.60;2.33;;;;;;;18.31;50.69;101043.41;5031969;28;20187;-74
2021/12/21 07:27:55;;;;;;;4.07;2.83;;;;;;;18.30;50.90;101040.88;5014440;28;20680;-74
2021/12/21 07:30:20;;;;;;;3.30;2.50;;;;;;;18.32;50.58;101047.94;5040517;28;20488;-73
2021/12/21 07:32:46;;;;;;;3.27;2.07;;;;;;;18.26;50.91;101048.56;4994594;28;20251;-74
2021/12/21 07:35:11;;;;;;;5.03;2.70;;;;;;;18.26;50.72;101049.34;5011103;28;20183;-75
2021/12/21 07:37:37;;;;;;;3.93;2.60;;;;;;;18.34;50.43;101047.59;5034107;28;20183;-74
2021/12/21 07:40:06;;;;;;;3.80;2.50;;;;;;;18.30;50.48;101043.75;5035358;28;20182;-73
2021/12/21 07:42:32;;;;;;;3.80;2.53;;;;;;;18.22;50.96;101042.69;5048302;28;20559;-74
2021/12/21 07:44:57;;;;;;;3.40;2.43;;;;;;;18.17;50.74;101042.94;5016760;28;20434;-75
2021/12/21 07:47:23;;;;;;;4.13;2.37;;;;;;;18.19;50.89;101046.28;5033441;28;20833;-75
2021/12/21 07:49:48;;;;;;;4.50;2.10;;;;;;;18.15;51.21;101036.78;5045937;28;20191;-76
2021/12/21 07:52:14;;;;;;;3.40;2.47;;;;;;;18.22;50.51;101041.88;5049579;28;20184;-76
2021/12/21 07:54:39;;;;;;;3.77;2.40;;;;;;;18.20;51.09;101045.09;5047527;28;21112;-74
2021/12/21 07:57:07;;;;;;;5.33;2.43;;;;;;;18.22;50.95;101039.03;5034154;28;20177;-74
2021/12/21 07:59:34;;;;;;;4.33;2.43;;;;;;;18.18;51.23;101040.94;5033822;28;20203;-74
2021/12/21 08:01:59;;;;;;;3.27;1.90;;;;;;;18.21;50.94;101040.22;5048675;28;20529;-75
2021/12/21 08:04:28;;;;;;;4.07;2.50;;;;;;;18.21;51.19;101043.09;5050474;28;20450;-75
2021/12/21 08:06:56;;;;;;;3.23;2.03;;;;;;;18.22;51.06;101053.31;5045085;28;20302;-74
2021/12/21 08:09:21;;;;;;;4.27;2.90;;;;;;;18.26;50.65;101054.25;5028643;28;20434;-75
2021/12/21 08:14:32;;;;;;;3.10;2.20;;;;;;;18.26;50.86;101057.94;5039721;28;20202;-75
2021/12/21 08:16:58;;;;;;;3.80;2.40;;;;;;;18.34;50.53;101050.44;5049553;28;20450;-74
2021/12/21 08:19:23;;;;;;;3.70;2.23;;;;;;;18.31;50.57;101051.97;5032503;28;20965;-73
2021/12/21 08:21:48;;;;;;;3.20;2.43;;;;;;;18.36;50.43;101048.06;5051549;28;20661;-75
2021/12/21 08:24:14;;;;;;;3.63;2.37;;;;;;;18.35;50.37;101052.09;5051101;28;20176;-77
2021/12/21 08:26:39;;;;;;;5.33;2.67;;;;;;;18.33;51.09;101043.91;5039826;28;20234;-75
2021/12/21 08:29:05;;;;;;;2.80;1.80;;;;;;;18.30;50.59;101044.59;5030364;28;20246;-74
2021/12/21 08:31:30;;;;;;;3.73;2.10;;;;;;;18.36;50.44;101051.75;5031850;28;20180;-76
2021/12/21 08:33:56;;;;;;;3.80;2.80;;;;;;;18.33;50.60;101052.50;5014255;28;20283;-76
2021/12/21 08:36:21;;;;;;;3.70;2.40;;;;;;;18.33;50.39;101061.06;5032169;28;20592;-73
2021/12/21 08:38:47;;;;;;;3.17;2.30;;;;;;;18.31;50.58;101056.88;5016040;28;20176;-74
2021/12/21 08:41:12;;;;;;;3.30;2.33;;;;;;;18.41;50.23;101054.34;5015722;28;20183;-74
2021/12/21 08:43:39;;;;;;;3.70;2.33;;;;;;;18.33;50.28;101061.06;5033533;28;20187;-74
2021/12/21 08:46:06;;;;;;;3.60;2.40;;;;;;;18.38;50.50;101062.81;5049082;28;20202;-75
2021/12/21 08:48:32;;;;;;;5.43;2.53;;;;;;;18.39;50.22;101053.06;5065814;28;20913;-75
2021/12/21 08:50:58;;;;;;;3.53;2.20;;;;;;;18.40;50.53;101052.69;5066090;28;20478;-73
2021/12/21 08:53:24;;;;;;;3.50;2.33;;;;;;;18.30;50.69;101050.31;5049293;28;20228;-75
2021/12/21 08:55:51;;;;;;;4.63;2.40;;;;;;;18.38;50.40;101049.38;5029619;28;20845;-74
2021/12/21 08:58:16;;;;;;;4.00;2.33;;;;;;;18.39;50.11;101042.47;5017501;28;20176;-74
2021/12/21 09:00:42;;;;;;;4.27;2.50;;;;;;;18.39;50.25;101048.19;5023816;28;20438;-74
2021/12/21 09:03:08;;;;;;;3.40;2.30;;;;;;;18.41;50.21;101039.25;5023158;28;20180;-73
2021/12/21 09:05:34;;;;;;;3.27;2.13;;;;;;;18.34;50.78;101037.00;5029166;28;20218;-74
2021/12/21 09:08:00;;;;;;;4.70;2.10;;;;;;;18.41;50.25;101047.81;5030051;28;20195;-74
2021/12/21 09:10:25;;;;;;;4.20;2.30;;;;;;;18.39;50.23;101048.19;5035050;28;20223;-75
2021/12/21 09:12:51;;;;;;;3.30;2.00;;;;;;;18.40;50.29;101049.00;5029590;28;20906;-74
2021/12/21 09:15:18;;;;;;;3.43;2.30;;;;;;;18.40;50.38;101055.56;5029119;28;20173;-74
2021/12/21 09:17:44;;;;;;;5.23;2.43;;;;;;;18.44;50.27;101062.22;5029028;28;20202;-75
2021/12/21 09:20:12;;;;;;;6.60;2.53;;;;;;;18.42;50.32;101063.78;5039557;28;20809;-74
2021/12/21 09:22:38;;;;;;;4.10;2.40;;;;;;;18.34;50.72;101065.59;5033570;28;20978;-74
2021/12/21 09:25:04;;;;;;;3.77;2.23;;;;;;;18.34;50.66;101045.56;5045382;28;20525;-75
2021/12/21 09:27:29;;;;;;;4.00;2.90;;;;;;;18.36;50.65;101053.78;5014859;28;20216;-73
2021/12/21 09:29:54;;;;;;;3.60;2.10;;;;;;;18.38;50.53;101060.81;5031563;28;20639;-74
2021/12/21 09:32:20;;;;;;;6.13;2.03;;;;;;;18.35;51.00;101061.53;5032599;28;20237;-75
2021/12/21 09:34:46;;;;;;;3.30;2.20;;;;;;;18.30;51.01;101052.31;5033285;28;20636;-75
2021/12/21 09:37:16;;;;;;;3.17;2.07;;;;;;;18.33;50.63;101063.94;5022022;28;20178;-74
2021/12/21 09:39:52;;;;;;;3.47;2.40;;;;;;;18.38;50.70;101057.97;5048487;28;20206;-75
2021/12/21 09:42:20;;;;;;;2.73;1.87;;;;;;;18.34;50.84;101064.75;5027930;28;20445;-75
2021/12/21 09:44:45;;;;;;;4.00;2.17;;;;;;;18.32;51.22;101069.97;5048056;28;20960;-74
2021/12/21 09:47:11;;;;;;;4.80;2.50;;;;;;;18.30;51.07;101058.88;5031183;28;20462;-74
2021/12/21 09:49:37;;;;;;;4.70;2.57;;;;;;;18.33;50.96;101055.34;5049039;28;20199;-76
2021/12/21 09:52:04;;;;;;;3.07;2.03;;;;;;;18.36;51.01;101060.31;5045704;28;20207;-74
2021/12/21 09:54:30;;;;;;;3.10;2.37;;;;;;;18.30;51.15;101050.31;5017267;28;20426;-75
2021/12/21 09:56:56;;;;;;;3.90;2.27;;;;;;;18.36;50.71;101053.78;5028861;28;20859;-74
2021/12/21 09:59:21;;;;;;;3.53;2.37;;;;;;;18.36;50.90;101046.03;5020820;28;20435;-75
2021/12/21 10:01:47;;;;;;;3.20;1.87;;;;;;;18.40;50.71;101043.28;4994797;28;20254;-76
2021/12/21 10:04:12;;;;;;;4.03;2.20;;;;;;;18.38;50.61;101043.66;5012983;28;20192;-74
2021/12/21 10:06:47;;;;;;;3.00;2.17;;;;;;;18.38;50.88;101045.69;5005139;28;20706;-76
2021/12/21 10:09:13;;;;;;;2.87;2.10;;;;;;;18.38;50.71;101043.66;5016296;28;20181;-74
2021/12/21 10:11:47;;;;;;;3.53;2.17;;;;;;;18.39;50.69;101042.47;5045195;28;20447;-75
2021/12/21 10:14:12;;;;;;;3.50;2.20;;;;;;;18.45;50.05;101046.72;5005028;28;20211;-75
2021/12/21 10:16:38;;;;;;;3.23;1.90;;;;;;;18.48;50.60;101037.44;5027778;28;20454;-77
2021/12/21 10:19:06;;;;;;;3.60;2.10;;;;;;;18.48;50.31;101040.28;5030379;28;20191;-73
2021/12/21 10:21:32;;;;;;;3.23;2.10;;;;;;;18.46;50.43;101039.00;5030610;28;20188;-75
2021/12/21 10:23:57;;;;;;;3.83;2.10;;;;;;;18.43;50.68;101040.56;5015386;28;20912;-74
2021/12/21 10:26:29;;;;;;;2.60;1.83;;;;;;;18.44;50.51;101047.09;5047708;28;20203;-74
2021/12/21 10:29:00;;;;;;;3.77;2.30;;;;;;;18.45;50.66;101043.03;5032110;28;20198;-74
2021/12/21 10:31:25;;;;;;;2.90;1.90;;;;;;;18.42;50.54;101044.56;5037407;28;20466;-74
2021/12/21 10:33:50;;;;;;;3.23;2.23;;;;;;;18.46;50.35;101047.56;5047853;28;20461;-74
2021/12/21 10:36:16;;;;;;;2.57;1.80;;;;;;;18.45;50.74;101045.88;5046130;28;20866;-76
2021/12/21 10:38:49;;;;;;;3.67;1.90;;;;;;;18.47;50.11;101050.03;5014583;28;20172;-74
2021/12/21 10:41:32;;;;;;;3.10;1.93;;;;;;;18.47;50.61;101043.50;5046863;28;20176;-73
2021/12/21 10:44:03;;;;;;;4.30;2.20;;;;;;;18.40;50.80;101041.25;5033957;28;20430;-76
2021/12/21 10:46:34;;;;;;;3.53;2.23;;;;;;;18.48;50.62;101037.44;5044998;28;20466;-74
2021/12/21 10:49:09;;;;;;;3.50;1.90;;;;;;;18.45;50.50;101034.44;5030960;28;20422;-74
2021/12/21 10:51:36;;;;;;;3.43;2.00;;;;;;;18.42;50.85;101041.72;5047621;28;20924;-74
2021/12/21 10:54:01;;;;;;;3.10;1.90;;;;;;;18.43;50.60;101034.00;5029800;28;22643;-75
2021/12/21 10:56:27;;;;;;;2.90;1.90;;;;;;;18.42;50.73;101030.28;5010956;28;20463;-73
2021/12/21 10:58:55;;;;;;;3.13;2.10;;;;;;;18.42;51.02;101032.31;5010829;28;20175;-75
2021/12/21 11:01:26;;;;;;;3.00;1.70;;;;;;;18.45;50.62;101032.44;5026649;28;20182;-76
2021/12/21 11:03:54;;;;;;;3.30;2.17;;;;;;;18.39;50.81;101019.59;5047361;28;20450;-75
2021/12/21 11:06:31;;;;;;;3.60;2.20;;;;;;;18.41;50.98;101028.63;5039155;28;20470;-75
2021/12/21 11:08:57;;;;;;;3.73;1.80;;;;;;;18.47;50.55;101020.63;5015414;28;20472;-74
2021/12/21 11:11:32;;;;;;;3.47;2.13;;;;;;;18.45;50.52;101021.00;5048898;28;20422;-75
2021/12/21 11:14:07;;;;;;;3.60;1.90;;;;;;;18.45;50.48;101015.28;5050043;28;20256;-74
2021/12/21 11:16:53;;;;;;;4.90;1.90;;;;;;;18.45;50.83;101012.41;5051504;28;20968;-75
2021/12/21 11:19:20;;;;;;;5.03;2.40;;;;;;;18.40;50.98;101006.97;5066807;28;20425;-75
2021/12/21 11:21:45;;;;;;;2.40;1.60;;;;;;;18.41;50.42;101002.91;5051744;28;21066;-75
2021/12/21 11:24:16;;;;;;;3.37;2.07;;;;;;;18.43;50.95;101008.25;5027412;28;20545;-76
2021/12/21 11:26:43;;;;;;;3.03;1.87;;;;;;;18.46;50.63;101011.22;5048850;28;20183;-74
2021/12/21 11:29:12;;;;;;;3.10;2.03;;;;;;;18.48;50.73;100997.41;5032955;28;20923;-75
2021/12/21 11:31:39;;;;;;;2.70;1.70;;;;;;;18.46;50.79;101001.81;5050940;28;20450;-73
2021/12/21 11:34:07;;;;;;;3.60;1.90;;;;;;;18.45;50.59;100992.41;5017975;28;20437;-74
2021/12/21 11:39:18;;;;;;;3.57;2.00;;;;;;;18.45;50.83;100975.25;5036869;28;20441;-74
2021/12/21 11:41:44;;;;;;;3.30;2.10;;;;;;;18.48;50.36;100983.09;5031252;28;20450;-75
2021/12/21 11:44:32;;;;;;;3.37;2.20;;;;;;;18.39;50.83;100988.16;5035289;28;20806;-75
2021/12/21 11:47:01;;;;;;;3.30;2.10;;;;;;;18.44;50.85;100987.88;5030851;28;20215;-75
2021/12/21 11:49:36;;;;;;;4.10;2.27;;;;;;;18.45;50.57;100985.84;5030477;28;20432;-73
2021/12/21 11:52:18;;;;;;;3.40;1.70;;;;;;;18.46;50.64;100981.81;5012045;28;20462;-74
2021/12/21 11:54:51;;;;;;;3.07;1.93;;;;;;;18.43;50.78;100982.53;5049641;28;20927;-74
2021/12/21 11:57:18;;;;;;;3.37;1.83;;;;;;;18.46;51.23;100978.94;5049203;28;20460;-75
2021/12/21 11:59:47;;;;;;;2.97;1.70;;;;;;;18.43;50.99;100971.94;5032887;28;20496;-74
2021/12/21 12:02:13;;;;;;;2.60;1.80;;;;;;;18.42;51.05;100967.38;5016466;28;20481;-74
2021/12/21 12:04:39;;;;;;;3.77;2.00;;;;;;;18.45;50.63;100965.81;5017196;28;20498;-74
2021/12/21 12:07:16;;;;;;;3.67;2.20;;;;;;;18.47;50.37;100960.59;5017678;28;20242;-75
2021/12/21 12:09:41;;;;;;;2.63;1.53;;;;;;;18.48;50.72;100965.09;5031060;28;20286;-74
2021/12/21 12:12:17;;;;;;;2.73;1.80;;;;;;;18.49;50.40;100972.47;5016807;28;20548;-74
2021/12/21 12:14:44;;;;;;;3.43;1.97;;;;;;;18.47;50.46;100972.84;5047614;28;20551;-75
2021/12/21 12:17:18;;;;;;;3.50;1.80;;;;;;;18.46;50.42;100961.78;5016881;28;20912;-74
2021/12/21 12:19:58;;;;;;;4.57;1.80;;;;;;;18.51;50.65;100965.22;5033768;28;20426;-74